Time;durP1;ratioP1;P1;durP2;ratioP2;P2;SDS_P1;SDS_P2;PMS_P1;PMS_P2;Temp;Humidity;BMP_temperature;BMP_pressure;BME280_temperature;BME280_humidity;BME280_pressure;Samples;Min_cycle;Max_cycle;Signal;HPM_P1;HPM_P2
2023/07/06 00:00:31;;;;;;;4.20;3.20;;;14.60;99.90;;;;;;5089111;28;20421;-69
2023/07/06 00:02:58;;;;;;;4.50;3.13;;;14.60;99.90;;;;;;5089618;28;20413;-69
2023/07/06 00:05:25;;;;;;;4.47;3.90;;;14.60;99.90;;;;;;5102016;28;20398;-70
2023/07/06 00:07:53;;;;;;;3.90;3.20;;;14.60;99.90;;;;;;5114171;28;20394;-71
2023/07/06 00:10:22;;;;;;;2.92;2.55;;;14.70;99.90;;;;;;5103315;28;20410;-70
2023/07/06 00:12:48;;;;;;;3.83;2.60;;;14.60;99.90;;;;;;5093368;28;20513;-68
2023/07/06 00:15:15;;;;;;;3.28;2.33;;;14.60;99.60;;;;;;5089371;28;20413;-69
2023/07/06 00:17:42;;;;;;;3.83;2.90;;;14.50;99.40;;;;;;5088820;28;20486;-69
2023/07/06 00:20:12;;;;;;;3.40;2.30;;;14.50;99.70;;;;;;5089053;28;20471;-69
2023/07/06 00:22:39;;;;;;;3.08;2.63;;;14.50;99.00;;;;;;5088961;28;20923;-68
2023/07/06 00:25:07;;;;;;;3.75;2.65;;;14.50;99.00;;;;;;5078840;28;20431;-69
2023/07/06 00:27:36;;;;;;;2.90;2.50;;;14.40;98.80;;;;;;5086209;28;20591;-69
2023/07/06 00:30:15;;;;;;;3.55;2.60;;;14.40;98.40;;;;;;5088703;28;20414;-68
2023/07/06 00:32:42;;;;;;;3.05;2.75;;;14.30;98.60;;;;;;5088926;28;20410;-69
2023/07/06 00:35:10;;;;;;;3.87;2.87;;;14.30;98.70;;;;;;5088982;28;20515;-69
2023/07/06 00:37:38;;;;;;;4.00;2.72;;;14.30;99.40;;;;;;5089071;28;20493;-69
2023/07/06 00:40:07;;;;;;;3.20;2.90;;;14.30;99.90;;;;;;5070345;28;20943;-69
2023/07/06 00:42:36;;;;;;;3.20;2.90;;;14.30;99.90;;;;;;5080491;28;20414;-69
2023/07/06 00:45:04;;;;;;;4.03;3.00;;;14.30;99.90;;;;;;5088547;28;20457;-69
2023/07/06 00:47:35;;;;;;;4.57;2.90;;;14.20;99.90;;;;;;5088934;28;20413;-68
2023/07/06 00:50:07;;;;;;;3.38;2.70;;;14.20;99.90;;;;;;5088187;28;20436;-69
2023/07/06 00:52:37;;;;;;;3.67;2.90;;;14.20;99.90;;;;;;5089080;28;20418;-71
2023/07/06 00:55:06;;;;;;;3.53;2.88;;;14.20;99.90;;;;;;5070457;28;20431;-69
2023/07/06 00:57:35;;;;;;;4.10;3.03;;;14.10;99.90;;;;;;5085678;28;20417;-69
2023/07/06 01:00:04;;;;;;;4.32;3.03;;;14.10;99.90;;;;;;5088699;28;20425;-69
2023/07/06 01:02:31;;;;;;;4.85;3.00;;;14.10;99.90;;;;;;5088859;28;20875;-69
2023/07/06 01:04:58;;;;;;;3.45;2.80;;;14.00;99.90;;;;;;5077285;28;20425;-69
2023/07/06 01:07:27;;;;;;;3.50;2.97;;;14.00;99.90;;;;;;5077181;28;20399;-69
2023/07/06 01:09:53;;;;;;;3.30;3.00;;;14.00;99.90;;;;;;5080291;28;20427;-69
2023/07/06 01:12:24;;;;;;;6.03;3.20;;;13.90;99.70;;;;;;5091433;28;20428;-69
2023/07/06 01:14:52;;;;;;;3.70;3.40;;;13.90;99.90;;;;;;5096141;28;20402;-69
2023/07/06 01:17:26;;;;;;;5.20;3.40;;;13.90;99.90;;;;;;5090030;28;20410;-70
2023/07/06 01:20:16;;;;;;;3.60;3.30;;;13.90;99.90;;;;;;5075773;28;20431;-69
2023/07/06 01:23:29;;;;;;;6.40;3.23;;;13.90;99.90;;;;;;5087626;28;20546;-69
2023/07/06 01:26:14;;;;;;;4.20;3.15;;;13.80;99.90;;;;;;5070661;28;20743;-69
2023/07/06 01:29:08;;;;;;;4.00;3.30;;;13.80;99.90;;;;;;5071697;28;20416;-69
2023/07/06 01:31:45;;;;;;;4.05;3.40;;;13.70;99.90;;;;;;5071794;28;20747;-70
2023/07/06 01:34:20;;;;;;;3.88;3.10;;;13.70;99.90;;;;;;5069683;28;20408;-70
2023/07/06 01:36:53;;;;;;;4.13;3.37;;;13.80;99.90;;;;;;5081609;28;20450;-69
2023/07/06 01:39:22;;;;;;;4.30;3.47;;;13.70;99.90;;;;;;5075901;28;20879;-70
2023/07/06 01:42:18;;;;;;;4.00;3.50;;;13.70;99.90;;;;;;5085818;28;20806;-69
2023/07/06 01:44:47;;;;;;;3.45;3.10;;;13.70;99.90;;;;;;5089688;28;20923;-70
2023/07/06 01:47:16;;;;;;;4.20;3.50;;;13.70;99.90;;;;;;5091819;28;20410;-69
2023/07/06 01:49:43;;;;;;;5.80;3.80;;;13.70;99.90;;;;;;5090678;28;20421;-69
2023/07/06 01:52:16;;;;;;;4.80;3.50;;;13.70;99.90;;;;;;5075432;28;20773;-69
2023/07/06 01:54:54;;;;;;;4.07;3.42;;;13.70;99.90;;;;;;5066333;28;20804;-69
2023/07/06 01:57:27;;;;;;;5.68;3.33;;;13.70;99.90;;;;;;5082691;28;20448;-69
2023/07/06 01:59:57;;;;;;;6.63;4.10;;;13.60;99.90;;;;;;5090703;28;20428;-69
2023/07/06 02:02:26;;;;;;;4.97;3.90;;;13.60;99.80;;;;;;5091318;28;20414;-69
2023/07/06 02:04:55;;;;;;;6.15;3.90;;;13.60;99.90;;;;;;5091070;28;20421;-68
2023/07/06 02:07:22;;;;;;;5.25;3.70;;;13.60;99.90;;;;;;5091142;28;20494;-70
2023/07/06 02:09:54;;;;;;;3.67;3.38;;;13.60;99.90;;;;;;5069327;28;20789;-70
2023/07/06 02:12:21;;;;;;;3.97;3.00;;;13.60;99.90;;;;;;5083125;28;20421;-69
2023/07/06 02:14:48;;;;;;;3.55;3.08;;;13.50;98.70;;;;;;5091041;28;20413;-69
2023/07/06 02:17:15;;;;;;;4.22;3.60;;;13.40;98.30;;;;;;5090502;28;20761;-69
2023/07/06 02:19:43;;;;;;;3.80;3.50;;;13.40;99.70;;;;;;5090270;28;20410;-69
2023/07/06 02:22:10;;;;;;;3.60;3.30;;;13.40;99.70;;;;;;5090886;28;20421;-69
2023/07/06 02:24:38;;;;;;;3.75;3.35;;;13.40;99.40;;;;;;5084043;28;20449;-70
2023/07/06 02:27:05;;;;;;;4.10;3.10;;;13.40;99.50;;;;;;5083856;28;20421;-69
2023/07/06 02:29:33;;;;;;;4.93;3.40;;;13.30;98.30;;;;;;5090464;28;20749;-70
2023/07/06 02:32:00;;;;;;;4.28;2.92;;;13.30;97.90;;;;;;5090729;28;20417;-69
2023/07/06 02:34:27;;;;;;;4.00;3.00;;;13.20;97.40;;;;;;5090910;28;20414;-69
2023/07/06 02:36:56;;;;;;;4.65;2.90;;;13.20;97.40;;;;;;5089634;28;20888;-69
2023/07/06 02:39:24;;;;;;;3.97;2.75;;;13.20;97.50;;;;;;5072149;28;20452;-69
2023/07/06 02:41:52;;;;;;;5.75;3.10;;;13.20;97.20;;;;;;5082143;28;20421;-69
2023/07/06 02:44:19;;;;;;;3.63;2.50;;;13.10;97.20;;;;;;5090415;28;20928;-69
2023/07/06 02:46:46;;;;;;;4.70;3.05;;;13.10;97.30;;;;;;5090371;28;20428;-69
2023/07/06 02:49:13;;;;;;;4.20;2.75;;;13.10;96.80;;;;;;5089928;28;20880;-69
2023/07/06 02:51:41;;;;;;;3.85;2.72;;;13.10;97.40;;;;;;5090168;28;20982;-69
2023/07/06 02:54:10;;;;;;;6.00;3.37;;;13.10;97.40;;;;;;5076402;28;20443;-69
2023/07/06 02:56:36;;;;;;;5.53;3.03;;;13.10;96.90;;;;;;5081487;28;20418;-69
2023/07/06 02:59:03;;;;;;;4.57;2.90;;;13.00;96.90;;;;;;5089635;28;20417;-68
2023/07/06 03:01:30;;;;;;;5.57;3.15;;;13.00;97.00;;;;;;5090180;28;20773;-69
2023/07/06 03:03:57;;;;;;;4.95;2.95;;;12.90;96.90;;;;;;5089998;28;20410;-69
2023/07/06 03:06:23;;;;;;;3.55;2.70;;;12.90;96.90;;;;;;5090099;28;20417;-69
2023/07/06 03:08:50;;;;;;;3.58;2.90;;;12.90;96.80;;;;;;5078285;28;21028;-70
2023/07/06 03:11:18;;;;;;;5.25;2.60;;;12.90;96.80;;;;;;5084844;28;20448;-69
2023/07/06 03:13:45;;;;;;;4.35;2.80;;;12.90;96.50;;;;;;5092491;28;20417;-69
2023/07/06 03:16:12;;;;;;;4.18;3.08;;;12.90;96.60;;;;;;5101378;28;20752;-68
2023/07/06 03:18:40;;;;;;;3.40;2.60;;;12.90;96.80;;;;;;5099563;28;20421;-70
2023/07/06 03:21:07;;;;;;;4.70;2.73;;;12.90;96.60;;;;;;5103097;28;20422;-69
2023/07/06 03:23:34;;;;;;;5.68;3.00;;;12.90;97.00;;;;;;5097781;28;20429;-70
2023/07/06 03:26:00;;;;;;;4.85;2.70;;;12.90;97.00;;;;;;5097416;28;20436;-69
2023/07/06 03:28:29;;;;;;;3.40;2.70;;;12.90;97.40;;;;;;5091966;28;20413;-70
2023/07/06 03:30:56;;;;;;;4.50;2.70;;;12.90;97.60;;;;;;5089897;28;20471;-69
2023/07/06 03:33:24;;;;;;;4.35;2.60;;;12.90;97.10;;;;;;5089561;28;20405;-69
2023/07/06 03:35:53;;;;;;;6.87;2.80;;;12.90;97.40;;;;;;5089600;28;20478;-69
2023/07/06 03:38:20;;;;;;;3.58;2.50;;;12.90;97.10;;;;;;5074416;28;20457;-69
2023/07/06 03:40:49;;;;;;;5.10;3.20;;;12.90;96.20;;;;;;5081176;28;20433;-69
2023/07/06 03:43:16;;;;;;;4.00;3.00;;;12.80;96.30;;;;;;5089195;28;20444;-69
2023/07/06 03:45:46;;;;;;;3.85;3.45;;;12.80;97.40;;;;;;5089080;28;20541;-69
2023/07/06 03:48:13;;;;;;;3.38;3.05;;;12.90;98.20;;;;;;5089004;28;20417;-68
2023/07/06 03:50:40;;;;;;;3.50;3.20;;;12.90;98.40;;;;;;5089052;28;20409;-69
2023/07/06 03:53:07;;;;;;;3.47;3.00;;;12.90;98.50;;;;;;5065104;28;20467;-68
2023/07/06 03:55:34;;;;;;;4.45;3.20;;;13.00;98.70;;;;;;5077317;28;20498;-68
2023/07/06 03:58:01;;;;;;;4.80;2.80;;;13.00;99.30;;;;;;5088788;28;20761;-69
2023/07/06 04:00:28;;;;;;;3.63;3.00;;;13.00;98.20;;;;;;5088592;28;20412;-69
2023/07/06 04:03:00;;;;;;;4.30;3.00;;;13.00;97.70;;;;;;5089295;28;20413;-70
2023/07/06 04:05:31;;;;;;;5.30;2.80;;;13.00;97.40;;;;;;5089070;28;20463;-69
2023/07/06 04:07:59;;;;;;;3.22;2.88;;;12.90;97.10;;;;;;5067464;28;20482;-69
2023/07/06 04:10:27;;;;;;;3.80;2.90;;;12.90;97.50;;;;;;5075017;28;20423;-68
2023/07/06 04:12:53;;;;;;;3.50;3.00;;;12.90;97.80;;;;;;5050946;28;20767;-69
2023/07/06 04:15:22;;;;;;;5.38;3.03;;;12.90;96.80;;;;;;5050723;28;20420;-69
2023/07/06 04:17:50;;;;;;;4.93;3.00;;;12.90;96.70;;;;;;5052286;28;20444;-70
2023/07/06 04:20:21;;;;;;;5.20;2.90;;;12.90;96.90;;;;;;5052218;28;20464;-69
2023/07/06 04:22:49;;;;;;;3.88;3.38;;;12.90;97.40;;;;;;5068869;28;20430;-69
2023/07/06 04:25:19;;;;;;;5.40;3.10;;;12.90;97.90;;;;;;5072416;28;20447;-69
2023/07/06 04:27:46;;;;;;;5.97;3.13;;;12.90;97.30;;;;;;5088030;28;20471;-70
2023/07/06 04:30:15;;;;;;;4.22;2.88;;;12.90;96.80;;;;;;5087958;28;20410;-69
2023/07/06 04:32:42;;;;;;;4.50;3.00;;;12.90;96.70;;;;;;5089200;28;20409;-70
2023/07/06 04:35:11;;;;;;;3.78;3.40;;;12.90;96.70;;;;;;5088622;28;20413;-70
2023/07/06 04:37:41;;;;;;;4.70;3.35;;;13.00;96.70;;;;;;5073131;28;20447;-69
2023/07/06 04:40:11;;;;;;;4.55;3.10;;;13.00;96.70;;;;;;5078997;28;20505;-69
2023/07/06 04:42:38;;;;;;;4.50;2.67;;;13.00;96.70;;;;;;5086679;28;20424;-69
2023/07/06 04:45:06;;;;;;;3.40;3.10;;;13.00;96.30;;;;;;5088755;28;20421;-70
2023/07/06 04:47:33;;;;;;;3.80;2.92;;;13.00;96.30;;;;;;5088810;28;20436;-71
2023/07/06 04:49:59;;;;;;;4.60;2.80;;;13.10;96.50;;;;;;5088250;28;20529;-70
2023/07/06 04:52:26;;;;;;;4.70;2.70;;;13.10;96.10;;;;;;5072001;28;20436;-69
2023/07/06 04:54:54;;;;;;;6.70;2.90;;;13.10;95.70;;;;;;5079736;28;20413;-70
2023/07/06 04:57:21;;;;;;;5.50;3.10;;;13.00;96.00;;;;;;5088599;28;20424;-69
2023/07/06 04:59:47;;;;;;;4.88;2.90;;;13.10;96.10;;;;;;5088306;28;20413;-69
2023/07/06 05:02:14;;;;;;;5.07;3.20;;;13.10;96.40;;;;;;5083034;28;20797;-69
2023/07/06 05:04:41;;;;;;;5.20;3.03;;;13.10;96.40;;;;;;5090589;28;20803;-69
2023/07/06 05:07:08;;;;;;;4.07;2.93;;;13.10;95.80;;;;;;5078821;28;20884;-69
2023/07/06 05:09:36;;;;;;;5.40;2.70;;;13.10;96.00;;;;;;5082936;28;20414;-69
2023/07/06 05:12:05;;;;;;;4.47;3.00;;;13.20;96.00;;;;;;5092710;28;20421;-70
2023/07/06 05:14:34;;;;;;;4.40;2.90;;;13.20;96.70;;;;;;5092339;28;20415;-69
2023/07/06 05:17:01;;;;;;;3.75;2.88;;;13.20;96.60;;;;;;5074875;28;20733;-70
2023/07/06 05:19:27;;;;;;;4.05;2.65;;;13.20;96.00;;;;;;5087877;28;20417;-70
2023/07/06 05:21:55;;;;;;;5.30;2.60;;;13.30;95.60;;;;;;5085491;28;20426;-70
2023/07/06 05:24:21;;;;;;;4.38;3.00;;;13.20;95.30;;;;;;5084332;28;20452;-70
2023/07/06 05:26:48;;;;;;;4.15;2.60;;;13.20;95.20;;;;;;5092913;28;20417;-70
2023/07/06 05:29:16;;;;;;;5.78;2.60;;;13.30;95.30;;;;;;5091731;28;20856;-69
2023/07/06 05:31:45;;;;;;;5.13;3.10;;;13.30;95.30;;;;;;5087908;28;20409;-70
2023/07/06 05:34:12;;;;;;;3.08;2.47;;;13.30;95.10;;;;;;5063276;28;20867;-70
2023/07/06 05:36:39;;;;;;;4.28;2.53;;;13.30;95.20;;;;;;5079981;28;20428;-70
2023/07/06 05:39:06;;;;;;;4.00;2.92;;;13.40;95.20;;;;;;5082382;28;20433;-70
2023/07/06 05:41:33;;;;;;;4.70;2.40;;;13.40;95.10;;;;;;5091934;28;20487;-70
2023/07/06 05:44:00;;;;;;;3.97;2.72;;;13.50;95.00;;;;;;5091814;28;20414;-70
2023/07/06 05:46:28;;;;;;;5.03;2.63;;;13.50;95.00;;;;;;5091597;28;20433;-70
2023/07/06 05:48:54;;;;;;;4.40;2.80;;;13.50;94.20;;;;;;5085512;28;20431;-69
2023/07/06 05:51:21;;;;;;;3.60;2.80;;;13.50;94.40;;;;;;5079581;28;20892;-69
2023/07/06 05:53:49;;;;;;;4.05;2.60;;;13.60;94.40;;;;;;5069829;28;20950;-70
2023/07/06 05:56:18;;;;;;;4.03;2.88;;;13.60;94.80;;;;;;5086390;28;20514;-70
2023/07/06 05:58:45;;;;;;;4.55;2.72;;;13.70;94.60;;;;;;5090728;28;20453;-70
2023/07/06 06:01:11;;;;;;;5.87;2.80;;;13.70;93.50;;;;;;5081536;28;20533;-69
2023/07/06 06:03:40;;;;;;;5.33;2.97;;;13.70;93.90;;;;;;5068393;28;20456;-70
2023/07/06 06:06:07;;;;;;;4.60;2.83;;;13.80;94.00;;;;;;5082709;28;20483;-70
2023/07/06 06:08:34;;;;;;;4.18;2.50;;;13.80;94.30;;;;;;5080911;28;20541;-69
2023/07/06 06:11:01;;;;;;;5.63;3.00;;;13.80;94.10;;;;;;5082922;28;20413;-69
2023/07/06 06:13:28;;;;;;;6.65;2.45;;;13.90;93.60;;;;;;5091478;28;20406;-69
2023/07/06 06:15:55;;;;;;;3.33;2.20;;;14.00;92.80;;;;;;5091563;28;20445;-68
2023/07/06 06:18:22;;;;;;;4.00;2.70;;;14.00;92.90;;;;;;5091635;28;20538;-69
2023/07/06 06:20:51;;;;;;;4.00;2.50;;;14.10;92.90;;;;;;5079836;28;20425;-69
2023/07/06 06:23:20;;;;;;;5.93;2.70;;;14.10;92.60;;;;;;5077557;28;20859;-69
2023/07/06 06:25:47;;;;;;;4.53;2.10;;;14.10;92.50;;;;;;5082564;28;20922;-71
2023/07/06 06:28:13;;;;;;;3.05;2.10;;;14.20;92.20;;;;;;5091076;28;20410;-70
2023/07/06 06:30:41;;;;;;;4.85;2.13;;;14.30;91.80;;;;;;5090340;28;20410;-69
2023/07/06 06:33:08;;;;;;;4.18;2.50;;;14.40;91.40;;;;;;5091211;28;20410;-71
2023/07/06 06:35:35;;;;;;;5.20;2.90;;;14.50;91.10;;;;;;5079027;28;20427;-70
2023/07/06 06:38:05;;;;;;;6.70;2.85;;;14.60;90.70;;;;;;5078708;28;20521;-70
2023/07/06 06:40:33;;;;;;;7.63;2.67;;;14.60;89.60;;;;;;5081409;28;20421;-71
2023/07/06 06:43:00;;;;;;;4.50;2.15;;;14.70;89.20;;;;;;5090672;28;20421;-70
2023/07/06 06:45:27;;;;;;;6.07;2.08;;;14.80;88.90;;;;;;5090838;28;20933;-70
2023/07/06 06:47:54;;;;;;;7.97;2.58;;;14.90;87.10;;;;;;5090937;28;20880;-69
2023/07/06 06:50:21;;;;;;;6.63;2.33;;;14.90;86.60;;;;;;5090553;28;20406;-70
2023/07/06 06:52:48;;;;;;;4.00;2.13;;;15.00;86.10;;;;;;5070684;28;20503;-72
2023/07/06 06:55:16;;;;;;;4.18;1.80;;;15.10;83.70;;;;;;5075591;28;20419;-71
2023/07/06 06:57:43;;;;;;;4.85;2.95;;;15.20;83.30;;;;;;5070249;28;20423;-70
2023/07/06 07:00:14;;;;;;;6.30;1.90;;;15.30;83.10;;;;;;5069978;28;20404;-71
2023/07/06 07:02:41;;;;;;;4.38;1.50;;;15.40;82.50;;;;;;5070441;28;20430;-70
2023/07/06 07:05:09;;;;;;;5.03;1.80;;;15.50;81.00;;;;;;5069927;28;20416;-70
2023/07/06 07:07:37;;;;;;;4.88;1.70;;;15.60;80.60;;;;;;5065178;28;20439;-70
2023/07/06 07:10:05;;;;;;;5.83;2.40;;;15.60;80.70;;;;;;5084149;28;20867;-71
2023/07/06 07:12:33;;;;;;;4.53;1.90;;;15.80;80.40;;;;;;5069869;28;20423;-70
2023/07/06 07:14:59;;;;;;;5.95;3.15;;;15.90;79.20;;;;;;5069436;28;20415;-72
2023/07/06 07:17:27;;;;;;;3.85;1.90;;;15.90;79.60;;;;;;5069885;28;20408;-70
2023/07/06 07:19:53;;;;;;;4.18;2.25;;;16.00;77.80;;;;;;5069329;28;20455;-70
2023/07/06 07:22:21;;;;;;;3.92;2.10;;;16.10;78.90;;;;;;5071294;28;20429;-70
2023/07/06 07:24:48;;;;;;;4.05;1.90;;;16.30;77.80;;;;;;5080039;28;20415;-70
2023/07/06 07:27:16;;;;;;;3.08;1.60;;;16.30;77.90;;;;;;5090361;28;20445;-70
2023/07/06 07:29:45;;;;;;;4.20;1.60;;;16.50;77.60;;;;;;5089208;28;20409;-71
2023/07/06 07:32:11;;;;;;;4.82;1.90;;;16.60;76.40;;;;;;5089828;28;20880;-71
2023/07/06 07:34:38;;;;;;;4.20;2.30;;;16.70;76.30;;;;;;5090046;28;20436;-70
2023/07/06 07:37:10;;;;;;;2.30;1.43;;;16.80;76.70;;;;;;5071348;28;21064;-71
2023/07/06 07:39:37;;;;;;;3.15;1.60;;;17.00;74.20;;;;;;5067097;28;20427;-71
2023/07/06 07:42:04;;;;;;;3.40;1.48;;;17.10;72.50;;;;;;5081050;28;20769;-71
2023/07/06 07:44:31;;;;;;;3.57;1.60;;;17.20;73.20;;;;;;5089447;28;20892;-70
2023/07/06 07:46:59;;;;;;;4.43;1.80;;;17.30;72.20;;;;;;5089105;28;20418;-71
2023/07/06 07:49:26;;;;;;;3.30;1.80;;;17.30;72.30;;;;;;5089028;28;20410;-70
2023/07/06 07:51:52;;;;;;;2.80;1.60;;;17.40;71.90;;;;;;5081893;28;20914;-71
2023/07/06 07:54:20;;;;;;;3.35;1.50;;;17.60;72.70;;;;;;5080369;28;20501;-70
2023/07/06 07:56:51;;;;;;;3.70;1.90;;;17.70;70.70;;;;;;5089030;28;20873;-71
2023/07/06 07:59:17;;;;;;;4.05;1.80;;;17.90;70.20;;;;;;5089032;28;20429;-70
2023/07/06 08:01:45;;;;;;;4.30;1.45;;;18.00;68.30;;;;;;5089232;28;20410;-70
2023/07/06 08:04:14;;;;;;;2.10;1.50;;;18.10;68.60;;;;;;5076404;28;20517;-70
2023/07/06 08:06:41;;;;;;;3.20;1.60;;;18.20;67.90;;;;;;5075490;28;20534;-72
2023/07/06 08:09:09;;;;;;;2.45;1.45;;;18.40;66.50;;;;;;5079825;28;20414;-71
2023/07/06 08:11:38;;;;;;;3.53;1.43;;;18.50;66.50;;;;;;5089112;28;20796;-70
2023/07/06 08:14:08;;;;;;;3.90;1.70;;;18.60;66.60;;;;;;5088992;28;20876;-71
2023/07/06 08:16:35;;;;;;;2.13;1.30;;;18.80;65.10;;;;;;5087211;28;20410;-70
2023/07/06 08:19:02;;;;;;;3.63;1.50;;;18.90;64.90;;;;;;5069042;28;20407;-71
2023/07/06 08:21:30;;;;;;;4.18;1.73;;;19.10;63.00;;;;;;5085329;28;20535;-70
2023/07/06 08:23:58;;;;;;;4.40;1.48;;;19.20;63.40;;;;;;5068432;28;20425;-71
2023/07/06 08:26:25;;;;;;;2.28;1.20;;;19.30;61.90;;;;;;5084816;28;20421;-71
2023/07/06 08:28:52;;;;;;;3.40;1.60;;;19.40;60.30;;;;;;5088721;28;20517;-72
2023/07/06 08:31:20;;;;;;;2.83;1.67;;;19.50;58.00;;;;;;5083097;28;20447;-70
2023/07/06 08:33:47;;;;;;;2.55;1.60;;;19.50;58.30;;;;;;5081308;28;20526;-71
2023/07/06 08:36:16;;;;;;;3.53;2.10;;;19.60;59.50;;;;;;5097207;28;20409;-71
2023/07/06 08:38:44;;;;;;;4.30;2.08;;;19.80;59.40;;;;;;5076489;28;20436;-71
2023/07/06 08:41:17;;;;;;;2.40;1.53;;;20.00;59.20;;;;;;5075030;28;20947;-70
2023/07/06 08:43:46;;;;;;;2.58;1.80;;;20.10;56.90;;;;;;5091789;28;20417;-70
2023/07/06 08:46:13;;;;;;;2.92;1.63;;;20.10;57.30;;;;;;5093003;28;20453;-70
2023/07/06 08:48:41;;;;;;;3.00;2.00;;;20.10;56.10;;;;;;5076735;28;20876;-71
2023/07/06 08:51:17;;;;;;;3.60;1.60;;;20.10;57.90;;;;;;5084548;28;20810;-70
2023/07/06 08:53:51;;;;;;;2.97;1.67;;;20.30;57.70;;;;;;5082451;28;20491;-70
2023/07/06 08:56:21;;;;;;;6.05;1.70;;;20.50;56.80;;;;;;5087174;28;20406;-70
2023/07/06 08:58:49;;;;;;;4.65;2.35;;;20.80;55.70;;;;;;5092203;28;20892;-70
2023/07/06 09:01:20;;;;;;;3.80;1.80;;;21.00;53.20;;;;;;5086965;28;20444;-71
2023/07/06 09:03:48;;;;;;;3.50;1.90;;;21.20;51.80;;;;;;5084073;28;20496;-70
2023/07/06 09:06:19;;;;;;;2.30;1.40;;;21.30;51.40;;;;;;5092468;28;20487;-70
2023/07/06 09:08:47;;;;;;;5.00;1.92;;;21.30;51.40;;;;;;5072147;28;20460;-70
2023/07/06 09:11:15;;;;;;;4.03;1.90;;;21.50;49.90;;;;;;5077840;28;20420;-72
2023/07/06 09:13:47;;;;;;;3.30;1.90;;;21.40;50.80;;;;;;5072273;28;20415;-70
2023/07/06 09:16:18;;;;;;;4.20;2.03;;;21.50;48.80;;;;;;5061687;28;20429;-70
2023/07/06 09:18:44;;;;;;;2.60;1.27;;;21.60;50.00;;;;;;5081384;28;20441;-71
2023/07/06 09:21:11;;;;;;;2.92;1.55;;;21.70;49.00;;;;;;5092311;28;20410;-70
2023/07/06 09:23:39;;;;;;;3.33;1.50;;;21.90;48.00;;;;;;5074962;28;20908;-70
2023/07/06 09:26:08;;;;;;;3.30;1.60;;;22.00;48.00;;;;;;5085342;28;20588;-70
2023/07/06 09:28:35;;;;;;;1.77;1.20;;;22.10;45.90;;;;;;5093342;28;20414;-72
2023/07/06 09:31:08;;;;;;;2.97;1.40;;;21.80;45.80;;;;;;5092502;28;20925;-70
2023/07/06 09:33:35;;;;;;;3.22;1.50;;;21.70;44.90;;;;;;5092231;28;20414;-70
2023/07/06 09:36:06;;;;;;;3.70;1.80;;;21.80;44.70;;;;;;5090907;28;20418;-71
2023/07/06 09:38:44;;;;;;;2.10;1.50;;;21.90;45.30;;;;;;5074532;28;20536;-71
2023/07/06 09:41:21;;;;;;;2.70;1.50;;;22.10;45.60;;;;;;5083729;28;20410;-70
2023/07/06 09:43:49;;;;;;;2.30;1.50;;;22.40;44.70;;;;;;5092018;28;20417;-70
2023/07/06 09:46:15;;;;;;;2.40;1.30;;;22.60;44.20;;;;;;5091963;28;20536;-70
2023/07/06 09:48:42;;;;;;;2.42;1.60;;;22.40;44.30;;;;;;5091772;28;20431;-70
2023/07/06 09:51:15;;;;;;;2.50;1.58;;;22.30;44.80;;;;;;5091888;28;20413;-72
2023/07/06 09:53:49;;;;;;;2.70;1.38;;;22.40;43.40;;;;;;5069612;28;20484;-72
2023/07/06 09:56:16;;;;;;;2.80;1.50;;;22.50;42.60;;;;;;5071988;28;20415;-70
2023/07/06 09:58:46;;;;;;;1.90;1.40;;;22.80;44.10;;;;;;5070733;28;20422;-71
2023/07/06 10:01:21;;;;;;;2.60;1.30;;;23.20;41.80;;;;;;5072898;28;20434;-71
2023/07/06 10:03:56;;;;;;;2.20;1.20;;;23.30;40.20;;;;;;5083259;28;20421;-71
2023/07/06 10:06:34;;;;;;;2.38;1.40;;;23.10;40.20;;;;;;5091623;28;20426;-71
2023/07/06 10:09:10;;;;;;;2.03;1.20;;;22.70;40.20;;;;;;5080535;28;20426;-71
2023/07/06 10:11:43;;;;;;;2.60;1.30;;;22.70;40.60;;;;;;5089205;28;20421;-72
2023/07/06 10:14:20;;;;;;;2.50;1.23;;;22.70;38.80;;;;;;5091919;28;20433;-72
2023/07/06 10:16:57;;;;;;;2.40;2.20;;;22.90;39.30;;;;;;5065747;28;20930;-70
2023/07/06 10:19:31;;;;;;;2.23;1.20;;;23.10;40.80;;;;;;5082363;28;20446;-71
2023/07/06 10:22:07;;;;;;;2.00;1.20;;;23.30;39.10;;;;;;5074876;28;20945;-72
2023/07/06 10:24:40;;;;;;;1.80;1.10;;;23.60;37.80;;;;;;5082387;28;20418;-71
2023/07/06 10:27:17;;;;;;;1.70;1.10;;;23.70;38.40;;;;;;5090909;28;20418;-71
2023/07/06 10:29:49;;;;;;;1.50;1.10;;;23.80;38.80;;;;;;5090794;28;20409;-71
2023/07/06 10:32:20;;;;;;;1.90;1.20;;;23.90;37.90;;;;;;5091171;28;20418;-71
2023/07/06 10:34:53;;;;;;;3.20;1.20;;;23.90;38.00;;;;;;5091205;28;20409;-71
2023/07/06 10:37:22;;;;;;;1.80;1.10;;;23.90;38.20;;;;;;5071544;28;20513;-71
2023/07/06 10:40:10;;;;;;;1.95;1.30;;;24.00;37.80;;;;;;5078091;28;20426;-71
2023/07/06 10:42:43;;;;;;;1.30;1.02;;;24.30;37.00;;;;;;5070865;28;20412;-70
2023/07/06 10:45:39;;;;;;;2.20;1.20;;;24.60;36.40;;;;;;5070694;28;20491;-71
2023/07/06 10:48:14;;;;;;;2.00;1.20;;;25.00;36.20;;;;;;5070516;28;20432;-71
2023/07/06 10:50:47;;;;;;;1.80;1.13;;;25.40;34.80;;;;;;5068864;28;20491;-70
2023/07/06 10:53:25;;;;;;;1.87;1.10;;;25.40;34.70;;;;;;5078798;28;20468;-71
2023/07/06 10:55:58;;;;;;;1.83;1.08;;;25.10;34.20;;;;;;5070706;28;20814;-71
2023/07/06 10:58:27;;;;;;;1.88;1.00;;;24.80;34.30;;;;;;5100133;22;20434;-73
2023/07/06 11:00:57;;;;;;;2.70;1.10;;;24.70;33.80;;;;;;5089913;28;20486;-74
2023/07/06 11:03:27;;;;;;;1.40;1.00;;;24.50;33.50;;;;;;5090228;28;20923;-73
2023/07/06 11:05:57;;;;;;;1.60;1.00;;;24.20;33.60;;;;;;5086310;28;20525;-73
2023/07/06 11:09:04;;;;;;;1.80;1.00;;;23.80;34.70;;;;;;5081285;28;20515;-74
2023/07/06 11:11:34;;;;;;;1.50;1.05;;;23.50;35.70;;;;;;5070150;28;20416;-73
2023/07/06 11:14:19;;;;;;;1.90;1.10;;;23.80;35.50;;;;;;5069896;28;20420;-74
2023/07/06 11:16:55;;;;;;;2.40;1.00;;;24.00;35.30;;;;;;5070092;28;20479;-74
2023/07/06 11:19:27;;;;;;;1.52;0.90;;;24.40;34.80;;;;;;5069194;28;20423;-74
2023/07/06 11:21:59;;;;;;;1.45;0.90;;;24.80;33.80;;;;;;5081811;28;20782;-74
2023/07/06 11:24:32;;;;;;;1.92;0.95;;;25.10;33.60;;;;;;5089435;28;20424;-74
2023/07/06 11:27:04;;;;;;;1.60;1.13;;;25.30;32.70;;;;;;5090618;28;20425;-73
2023/07/06 11:29:33;;;;;;;1.60;1.00;;;25.50;33.30;;;;;;5089140;28;20896;-72
2023/07/06 11:32:19;;;;;;;2.90;0.90;;;25.70;33.60;;;;;;5089921;28;20410;-75
2023/07/06 11:35:04;;;;;;;1.70;1.00;;;25.80;31.90;;;;;;5088460;28;20912;-75
2023/07/06 11:37:43;;;;;;;1.63;0.93;;;25.90;32.80;;;;;;5090388;28;20414;-75
2023/07/06 11:40:21;;;;;;;1.03;0.80;;;26.00;32.10;;;;;;5090118;28;20410;-75
2023/07/06 11:43:05;;;;;;;1.30;0.90;;;26.20;31.80;;;;;;5085794;28;20418;-75
2023/07/06 11:45:43;;;;;;;1.00;0.90;;;26.30;31.10;;;;;;5091086;28;20432;-74
2023/07/06 11:48:23;;;;;;;1.20;0.90;;;26.30;31.40;;;;;;5090548;28;20890;-74
2023/07/06 11:50:50;;;;;;;1.30;0.80;;;26.10;31.00;;;;;;5082230;28;20845;-72
2023/07/06 11:53:42;;;;;;;1.10;0.90;;;26.00;32.20;;;;;;5089801;28;20481;-72
2023/07/06 11:56:19;;;;;;;3.30;1.20;;;25.70;30.60;;;;;;5088690;28;20499;-75
2023/07/06 11:58:55;;;;;;;1.10;1.00;;;25.40;32.20;;;;;;5088863;28;20497;-73
2023/07/06 12:01:40;;;;;;;3.35;3.15;;;25.30;31.80;;;;;;5089411;28;20528;-73
2023/07/06 12:04:18;;;;;;;1.50;1.20;;;25.40;31.50;;;;;;5089413;28;20896;-74
2023/07/06 12:06:45;;;;;;;1.40;1.00;;;25.40;31.00;;;;;;5083799;28;20486;-74
2023/07/06 12:09:18;;;;;;;1.27;1.10;;;25.40;30.30;;;;;;5088026;28;20722;-74
2023/07/06 12:11:47;;;;;;;1.60;1.02;;;25.30;30.60;;;;;;5089316;28;20467;-74
2023/07/06 12:14:20;;;;;;;1.70;1.10;;;25.00;30.50;;;;;;5087424;28;20433;-73
2023/07/06 12:16:48;;;;;;;2.17;2.05;;;24.80;31.20;;;;;;5087733;28;20754;-73
2023/07/06 12:19:17;;;;;;;1.20;0.88;;;25.00;32.20;;;;;;5088374;28;20409;-73
2023/07/06 12:21:50;;;;;;;1.20;0.90;;;25.50;30.90;;;;;;5085728;28;20943;-73
2023/07/06 12:24:20;;;;;;;1.43;0.80;;;26.20;30.00;;;;;;5088552;28;20475;-74
2023/07/06 12:26:48;;;;;;;1.48;0.70;;;26.60;30.60;;;;;;5089127;28;20418;-75
2023/07/06 12:29:16;;;;;;;1.10;0.88;;;26.90;29.70;;;;;;5089254;28;20414;-75
2023/07/06 12:31:43;;;;;;;2.00;1.90;;;27.10;29.00;;;;;;5087511;28;21024;-74
2023/07/06 12:34:16;;;;;;;1.10;1.00;;;27.10;27.80;;;;;;5087977;28;20508;-74
2023/07/06 12:36:45;;;;;;;2.03;1.10;;;26.90;28.20;;;;;;5089314;28;20414;-75
2023/07/06 12:39:16;;;;;;;1.60;0.98;;;26.60;28.60;;;;;;5088009;28;20433;-74
2023/07/06 12:41:43;;;;;;;2.00;1.10;;;26.40;28.90;;;;;;5089198;28;20437;-74
2023/07/06 12:44:17;;;;;;;1.70;1.60;;;26.20;30.00;;;;;;5089195;28;20441;-74
2023/07/06 12:46:51;;;;;;;1.30;1.00;;;26.40;30.10;;;;;;5089041;28;20440;-74
2023/07/06 12:49:21;;;;;;;2.20;1.00;;;26.90;29.80;;;;;;5083236;28;20423;-75
2023/07/06 12:51:52;;;;;;;1.30;1.10;;;27.60;28.20;;;;;;5088972;28;20417;-73
2023/07/06 12:54:19;;;;;;;1.15;0.90;;;28.00;27.30;;;;;;5088124;28;20414;-73
2023/07/06 12:56:59;;;;;;;1.30;0.80;;;28.40;27.60;;;;;;5088697;28;20872;-73
2023/07/06 12:59:32;;;;;;;1.10;1.00;;;28.80;26.20;;;;;;5088256;28;20451;-73
2023/07/06 13:01:59;;;;;;;1.83;1.73;;;28.90;26.50;;;;;;5088144;28;20430;-74